עמוד ראשי
METAR-TAF:

METAR-TAF

שדות תעופה :

נסאו, איי בהאמה

קו רוחב: 25-03N, קו אורך: 077-28W, גובה: 3מטר

תצפית מזג אוויר נוכחית

הדו"ח נערך לפני 32דקות, בשעה 00:00 UTC
רוח 6קשר מכיוון דרום
טמפרטורת 29 צלסיוס
לחות 84%
לחץ 1016 hPa
ראות 10 קילומטר או יותר
מעט עננים בגובה 1500רגל
עננים בינוניים בגובה 15000רגל
מעונן בגובה 22000רגל

METAR: MYNN 130000Z 17006KT 9999 FEW015 BKN150 OVC220 29/26 A3000

זמן: 20:32 (00:32 UTC)

תחזית

הדו"ח נערך לפני 6 שעות ו 37דקות, בשעה 17:55 UTC
תחזית בתוקף מ 12 ב 18 UTC עד 13 ב 18 UTC
רוח 12קשר מכיוון דרום
ראות 10 קילומטר או יותר
עננים פזורים בגובה 1500רגל
עננים פזורים בגובה 4000רגל
מעונן בגובה 10000רגל
הסתברות 40% :
זמנית מ -
13 ב 10 UTC עד 13 ב 13 UTC
ראות: 8000מטר
עננים פזורים בגובה 1200רגל , קומולונימבוס.
עננים בינוניים בגובה 2000רגל
מעונן בגובה 6000רגל
סופת רעמים, גשם,

TAF: MYNN 121755Z 1218/1318 17012KT 9999 SCT015 SCT040 OVC100 PROB40 TEMPO 1310/1313 8000 TSRA SCT012CB BKN020 OVC060

תצפיות ותחזיות מזג אוויר לגבי יותר מ- 4,000 שדות תעופה ברחבי העולם. דוחות METAR ו- TAF.

התחנות הזמינות מסומנות בנקודות צהובות ואדומות על גבי המפה.

העבר את העכבר לנקודה הצבעונית על מנת לראות את שם התחנה.

לאחר מכן, לחץ כדי לראות את תוכן ואת תחזיות מזג האוויר.

כדי לשנות את המפה: לחץ על הכפתורים הירוקים עם הפלוס השחור כדי להתקרב; על הכפתור הירוק עם המקף כדי להתרחק; או בחיצים הירוקים למפות סמוכות.


METAR-TAF: